sensor_id;sensor_type;location;lat;lon;timestamp;temperature;humidity
44990;DHT22;30723;51.206;3.326;2022-10-22T00:00:49;16.20;99.90
44990;DHT22;30723;51.206;3.326;2022-10-22T00:03:15;16.20;99.90
44990;DHT22;30723;51.206;3.326;2022-10-22T00:05:41;16.20;99.90
44990;DHT22;30723;51.206;3.326;2022-10-22T00:08:07;16.30;99.90
44990;DHT22;30723;51.206;3.326;2022-10-22T00:10:32;16.20;99.90
44990;DHT22;30723;51.206;3.326;2022-10-22T00:12:59;16.20;99.90
44990;DHT22;30723;51.206;3.326;2022-10-22T00:15:24;16.20;99.90
44990;DHT22;30723;51.206;3.326;2022-10-22T00:17:50;16.20;99.90
44990;DHT22;30723;51.206;3.326;2022-10-22T00:20:16;16.10;99.90
44990;DHT22;30723;51.206;3.326;2022-10-22T00:22:42;16.10;99.90
44990;DHT22;30723;51.206;3.326;2022-10-22T00:25:07;16.10;99.90
44990;DHT22;30723;51.206;3.326;2022-10-22T00:27:33;16.10;99.90
44990;DHT22;30723;51.206;3.326;2022-10-22T00:29:59;16.10;99.90
44990;DHT22;30723;51.206;3.326;2022-10-22T00:32:25;16.10;99.90
44990;DHT22;30723;51.206;3.326;2022-10-22T00:34:50;16.20;99.90
44990;DHT22;30723;51.206;3.326;2022-10-22T00:37:16;16.10;99.90
44990;DHT22;30723;51.206;3.326;2022-10-22T00:39:42;16.10;99.90
44990;DHT22;30723;51.206;3.326;2022-10-22T00:42:15;16.10;99.90
44990;DHT22;30723;51.206;3.326;2022-10-22T00:47:41;16.10;99.90
44990;DHT22;30723;51.206;3.326;2022-10-22T00:50:15;16.00;99.90
44990;DHT22;30723;51.206;3.326;2022-10-22T00:52:41;16.00;99.90
44990;DHT22;30723;51.206;3.326;2022-10-22T00:55:07;16.00;99.90
44990;DHT22;30723;51.206;3.326;2022-10-22T00:57:34;16.00;99.90
44990;DHT22;30723;51.206;3.326;2022-10-22T01:00:00;15.90;99.90
44990;DHT22;30723;51.206;3.326;2022-10-22T01:02:26;15.90;99.90
44990;DHT22;30723;51.206;3.326;2022-10-22T01:04:52;16.00;99.90
44990;DHT22;30723;51.206;3.326;2022-10-22T01:07:20;15.90;99.90
44990;DHT22;30723;51.206;3.326;2022-10-22T01:10:02;15.90;99.90
44990;DHT22;30723;51.206;3.326;2022-10-22T01:13:01;15.90;99.90
44990;DHT22;30723;51.206;3.326;2022-10-22T01:15:47;16.00;99.90
44990;DHT22;30723;51.206;3.326;2022-10-22T01:18:23;15.90;99.90
44990;DHT22;30723;51.206;3.326;2022-10-22T01:26:42;15.90;99.90
44990;DHT22;30723;51.206;3.326;2022-10-22T01:29:21;15.80;99.90
44990;DHT22;30723;51.206;3.326;2022-10-22T01:31:53;15.70;99.90
44990;DHT22;30723;51.206;3.326;2022-10-22T01:34:21;15.70;99.90
44990;DHT22;30723;51.206;3.326;2022-10-22T01:36:50;15.70;99.90
44990;DHT22;30723;51.206;3.326;2022-10-22T01:39:17;15.70;99.90
44990;DHT22;30723;51.206;3.326;2022-10-22T01:41:44;15.70;99.90
44990;DHT22;30723;51.206;3.326;2022-10-22T01:44:34;15.70;99.90
44990;DHT22;30723;51.206;3.326;2022-10-22T01:47:13;15.70;99.90
44990;DHT22;30723;51.206;3.326;2022-10-22T01:50:10;15.70;99.90
44990;DHT22;30723;51.206;3.326;2022-10-22T01:58:51;15.70;99.90
44990;DHT22;30723;51.206;3.326;2022-10-22T02:04:30;15.70;99.90
44990;DHT22;30723;51.206;3.326;2022-10-22T02:07:00;15.70;99.90
44990;DHT22;30723;51.206;3.326;2022-10-22T02:09:28;15.60;99.90
44990;DHT22;30723;51.206;3.326;2022-10-22T02:11:56;15.50;99.90
44990;DHT22;30723;51.206;3.326;2022-10-22T02:14:24;15.50;99.90
44990;DHT22;30723;51.206;3.326;2022-10-22T02:16:51;15.60;99.90
44990;DHT22;30723;51.206;3.326;2022-10-22T02:21:49;15.60;99.90
44990;DHT22;30723;51.206;3.326;2022-10-22T02:24:16;15.60;99.90
44990;DHT22;30723;51.206;3.326;2022-10-22T02:26:57;15.60;99.90
44990;DHT22;30723;51.206;3.326;2022-10-22T02:29:32;15.50;99.90
44990;DHT22;30723;51.206;3.326;2022-10-22T02:32:00;15.50;99.90
44990;DHT22;30723;51.206;3.326;2022-10-22T02:34:30;15.60;99.90
44990;DHT22;30723;51.206;3.326;2022-10-22T02:36:57;15.60;99.90
44990;DHT22;30723;51.206;3.326;2022-10-22T02:39:26;15.50;99.90
44990;DHT22;30723;51.206;3.326;2022-10-22T02:41:52;15.50;99.90
44990;DHT22;30723;51.206;3.326;2022-10-22T02:44:20;15.60;99.90
44990;DHT22;30723;51.206;3.326;2022-10-22T02:46:47;15.60;99.90
44990;DHT22;30723;51.206;3.326;2022-10-22T02:49:13;15.60;99.90
44990;DHT22;30723;51.206;3.326;2022-10-22T02:51:38;15.60;99.90
44990;DHT22;30723;51.206;3.326;2022-10-22T02:54:04;15.70;99.90
44990;DHT22;30723;51.206;3.326;2022-10-22T02:56:33;15.60;99.90
44990;DHT22;30723;51.206;3.326;2022-10-22T02:58:59;15.50;99.90
44990;DHT22;30723;51.206;3.326;2022-10-22T03:01:24;15.50;99.90
44990;DHT22;30723;51.206;3.326;2022-10-22T03:03:50;15.50;99.90
44990;DHT22;30723;51.206;3.326;2022-10-22T03:06:16;15.50;99.90
44990;DHT22;30723;51.206;3.326;2022-10-22T03:08:42;15.50;99.90
44990;DHT22;30723;51.206;3.326;2022-10-22T03:11:08;15.50;99.90
44990;DHT22;30723;51.206;3.326;2022-10-22T03:13:34;15.50;99.90
44990;DHT22;30723;51.206;3.326;2022-10-22T03:15:59;15.60;99.90
44990;DHT22;30723;51.206;3.326;2022-10-22T03:18:25;15.60;99.90
44990;DHT22;30723;51.206;3.326;2022-10-22T03:23:48;15.60;99.90
44990;DHT22;30723;51.206;3.326;2022-10-22T03:26:14;15.60;99.90
44990;DHT22;30723;51.206;3.326;2022-10-22T03:28:41;15.70;99.90
44990;DHT22;30723;51.206;3.326;2022-10-22T03:31:08;15.80;99.90
44990;DHT22;30723;51.206;3.326;2022-10-22T03:33:33;15.70;99.90
44990;DHT22;30723;51.206;3.326;2022-10-22T03:35:59;15.70;99.90
44990;DHT22;30723;51.206;3.326;2022-10-22T03:38:25;15.80;99.90
44990;DHT22;30723;51.206;3.326;2022-10-22T03:40:51;15.70;99.90
44990;DHT22;30723;51.206;3.326;2022-10-22T03:43:17;15.70;99.90
44990;DHT22;30723;51.206;3.326;2022-10-22T03:45:43;15.80;99.90
44990;DHT22;30723;51.206;3.326;2022-10-22T03:48:09;15.80;99.90
44990;DHT22;30723;51.206;3.326;2022-10-22T03:50:34;15.80;99.90
44990;DHT22;30723;51.206;3.326;2022-10-22T03:53:00;15.90;99.90
44990;DHT22;30723;51.206;3.326;2022-10-22T03:55:26;15.90;99.90
44990;DHT22;30723;51.206;3.326;2022-10-22T03:57:52;15.90;99.90
44990;DHT22;30723;51.206;3.326;2022-10-22T04:00:18;16.00;99.90
44990;DHT22;30723;51.206;3.326;2022-10-22T04:02:43;16.00;99.90
44990;DHT22;30723;51.206;3.326;2022-10-22T04:05:09;16.00;99.90
44990;DHT22;30723;51.206;3.326;2022-10-22T04:07:35;16.00;99.90
44990;DHT22;30723;51.206;3.326;2022-10-22T04:10:01;16.00;99.90
44990;DHT22;30723;51.206;3.326;2022-10-22T04:12:26;16.10;99.90
44990;DHT22;30723;51.206;3.326;2022-10-22T04:14:52;16.10;99.90
44990;DHT22;30723;51.206;3.326;2022-10-22T04:17:18;16.10;99.90
44990;DHT22;30723;51.206;3.326;2022-10-22T04:19:44;16.10;99.90
44990;DHT22;30723;51.206;3.326;2022-10-22T04:22:09;16.10;99.90
44990;DHT22;30723;51.206;3.326;2022-10-22T04:24:35;16.20;99.90
44990;DHT22;30723;51.206;3.326;2022-10-22T04:27:01;16.10;99.90
44990;DHT22;30723;51.206;3.326;2022-10-22T04:29:27;16.10;99.90
44990;DHT22;30723;51.206;3.326;2022-10-22T04:31:52;16.10;99.90
44990;DHT22;30723;51.206;3.326;2022-10-22T04:34:18;16.00;99.90
44990;DHT22;30723;51.206;3.326;2022-10-22T04:36:44;15.90;99.90
44990;DHT22;30723;51.206;3.326;2022-10-22T04:39:10;16.00;99.90
44990;DHT22;30723;51.206;3.326;2022-10-22T04:41:37;16.00;99.90
44990;DHT22;30723;51.206;3.326;2022-10-22T04:44:04;15.90;99.90
44990;DHT22;30723;51.206;3.326;2022-10-22T04:46:32;16.00;99.90
44990;DHT22;30723;51.206;3.326;2022-10-22T04:48:58;16.00;99.90
44990;DHT22;30723;51.206;3.326;2022-10-22T04:51:25;16.00;99.90
44990;DHT22;30723;51.206;3.326;2022-10-22T04:53:52;16.00;99.90
44990;DHT22;30723;51.206;3.326;2022-10-22T04:56:21;15.90;99.90
44990;DHT22;30723;51.206;3.326;2022-10-22T04:58:50;15.70;99.90
44990;DHT22;30723;51.206;3.326;2022-10-22T05:01:18;15.70;99.90
44990;DHT22;30723;51.206;3.326;2022-10-22T05:03:45;15.70;99.90
44990;DHT22;30723;51.206;3.326;2022-10-22T05:06:12;15.70;99.90
44990;DHT22;30723;51.206;3.326;2022-10-22T05:08:38;15.70;99.90
44990;DHT22;30723;51.206;3.326;2022-10-22T05:13:37;15.70;99.90
44990;DHT22;30723;51.206;3.326;2022-10-22T05:16:03;15.70;99.90
44990;DHT22;30723;51.206;3.326;2022-10-22T05:18:29;15.70;99.90
44990;DHT22;30723;51.206;3.326;2022-10-22T05:20:54;15.70;99.90
44990;DHT22;30723;51.206;3.326;2022-10-22T05:23:20;15.70;99.90
44990;DHT22;30723;51.206;3.326;2022-10-22T05:25:46;15.70;99.90
44990;DHT22;30723;51.206;3.326;2022-10-22T05:28:11;15.70;99.90
44990;DHT22;30723;51.206;3.326;2022-10-22T05:30:37;15.70;99.90
44990;DHT22;30723;51.206;3.326;2022-10-22T05:33:03;15.60;99.90
44990;DHT22;30723;51.206;3.326;2022-10-22T05:35:29;15.60;99.90
44990;DHT22;30723;51.206;3.326;2022-10-22T05:37:54;15.60;99.90
44990;DHT22;30723;51.206;3.326;2022-10-22T05:40:22;15.60;99.90
44990;DHT22;30723;51.206;3.326;2022-10-22T05:42:48;15.60;99.90
44990;DHT22;30723;51.206;3.326;2022-10-22T05:45:14;15.70;99.90
44990;DHT22;30723;51.206;3.326;2022-10-22T05:47:40;15.70;99.90
44990;DHT22;30723;51.206;3.326;2022-10-22T05:50:06;15.70;99.90
44990;DHT22;30723;51.206;3.326;2022-10-22T05:52:31;15.70;99.90
44990;DHT22;30723;51.206;3.326;2022-10-22T05:54:57;15.60;99.90
44990;DHT22;30723;51.206;3.326;2022-10-22T05:57:23;15.50;99.90
44990;DHT22;30723;51.206;3.326;2022-10-22T05:59:49;15.40;99.90
44990;DHT22;30723;51.206;3.326;2022-10-22T06:02:14;15.40;99.90
44990;DHT22;30723;51.206;3.326;2022-10-22T06:04:40;15.40;99.90
44990;DHT22;30723;51.206;3.326;2022-10-22T06:07:08;15.30;99.90
44990;DHT22;30723;51.206;3.326;2022-10-22T06:09:35;15.30;99.90
44990;DHT22;30723;51.206;3.326;2022-10-22T06:12:02;15.30;99.90
44990;DHT22;30723;51.206;3.326;2022-10-22T06:14:28;15.30;99.90
44990;DHT22;30723;51.206;3.326;2022-10-22T06:16:58;15.30;99.90
44990;DHT22;30723;51.206;3.326;2022-10-22T06:19:24;15.20;99.90
44990;DHT22;30723;51.206;3.326;2022-10-22T06:21:52;15.30;99.90
44990;DHT22;30723;51.206;3.326;2022-10-22T06:24:17;15.30;99.90
44990;DHT22;30723;51.206;3.326;2022-10-22T06:26:43;15.30;99.90
44990;DHT22;30723;51.206;3.326;2022-10-22T06:29:09;15.40;99.90
44990;DHT22;30723;51.206;3.326;2022-10-22T06:31:35;15.40;99.90
44990;DHT22;30723;51.206;3.326;2022-10-22T06:34:06;15.40;99.90
44990;DHT22;30723;51.206;3.326;2022-10-22T06:36:32;15.40;99.90
44990;DHT22;30723;51.206;3.326;2022-10-22T06:38:58;15.40;99.90
44990;DHT22;30723;51.206;3.326;2022-10-22T06:41:24;15.40;99.90
44990;DHT22;30723;51.206;3.326;2022-10-22T06:43:50;15.40;99.90
44990;DHT22;30723;51.206;3.326;2022-10-22T06:46:19;15.40;99.90
44990;DHT22;30723;51.206;3.326;2022-10-22T06:48:56;15.40;99.90
44990;DHT22;30723;51.206;3.326;2022-10-22T06:51:22;15.40;99.90
44990;DHT22;30723;51.206;3.326;2022-10-22T06:53:48;15.30;99.90
44990;DHT22;30723;51.206;3.326;2022-10-22T06:56:16;15.40;99.90
44990;DHT22;30723;51.206;3.326;2022-10-22T06:58:42;15.40;99.90
44990;DHT22;30723;51.206;3.326;2022-10-22T07:01:11;15.40;99.90
44990;DHT22;30723;51.206;3.326;2022-10-22T07:03:39;15.50;99.90
44990;DHT22;30723;51.206;3.326;2022-10-22T07:06:07;15.60;99.90
44990;DHT22;30723;51.206;3.326;2022-10-22T07:08:34;15.70;99.90
44990;DHT22;30723;51.206;3.326;2022-10-22T07:11:30;15.70;99.90
44990;DHT22;30723;51.206;3.326;2022-10-22T07:13:59;15.70;99.90
44990;DHT22;30723;51.206;3.326;2022-10-22T07:16:24;15.70;99.90
44990;DHT22;30723;51.206;3.326;2022-10-22T07:18:50;15.80;99.90
44990;DHT22;30723;51.206;3.326;2022-10-22T07:21:18;15.80;99.90
44990;DHT22;30723;51.206;3.326;2022-10-22T07:23:45;15.80;99.90
44990;DHT22;30723;51.206;3.326;2022-10-22T07:26:13;15.90;99.90
44990;DHT22;30723;51.206;3.326;2022-10-22T07:28:39;16.00;99.90
44990;DHT22;30723;51.206;3.326;2022-10-22T07:31:10;16.10;99.90
44990;DHT22;30723;51.206;3.326;2022-10-22T07:33:36;16.20;99.90
44990;DHT22;30723;51.206;3.326;2022-10-22T07:36:05;16.30;99.90
44990;DHT22;30723;51.206;3.326;2022-10-22T07:38:32;16.30;99.90
44990;DHT22;30723;51.206;3.326;2022-10-22T07:40:58;16.30;99.90
44990;DHT22;30723;51.206;3.326;2022-10-22T07:43:24;16.30;99.90
44990;DHT22;30723;51.206;3.326;2022-10-22T07:45:50;16.30;99.90
44990;DHT22;30723;51.206;3.326;2022-10-22T07:48:16;16.40;99.90
44990;DHT22;30723;51.206;3.326;2022-10-22T07:50:42;16.40;99.90
44990;DHT22;30723;51.206;3.326;2022-10-22T07:53:08;16.40;99.90
44990;DHT22;30723;51.206;3.326;2022-10-22T07:55:34;16.50;99.90
44990;DHT22;30723;51.206;3.326;2022-10-22T07:58:00;16.60;99.90
44990;DHT22;30723;51.206;3.326;2022-10-22T08:00:26;16.70;99.90
44990;DHT22;30723;51.206;3.326;2022-10-22T08:02:52;16.80;99.90
44990;DHT22;30723;51.206;3.326;2022-10-22T08:05:18;16.80;99.90
44990;DHT22;30723;51.206;3.326;2022-10-22T08:07:43;16.80;99.90
44990;DHT22;30723;51.206;3.326;2022-10-22T08:10:11;16.90;99.90
44990;DHT22;30723;51.206;3.326;2022-10-22T08:12:37;16.90;99.90
44990;DHT22;30723;51.206;3.326;2022-10-22T08:15:03;16.80;99.90
44990;DHT22;30723;51.206;3.326;2022-10-22T08:17:29;16.80;99.90
44990;DHT22;30723;51.206;3.326;2022-10-22T08:19:55;16.80;99.90
44990;DHT22;30723;51.206;3.326;2022-10-22T08:22:21;16.80;99.90
44990;DHT22;30723;51.206;3.326;2022-10-22T08:24:47;16.80;99.90
44990;DHT22;30723;51.206;3.326;2022-10-22T08:27:13;16.80;99.90
44990;DHT22;30723;51.206;3.326;2022-10-22T08:29:39;16.70;99.90
44990;DHT22;30723;51.206;3.326;2022-10-22T08:32:05;16.70;99.90
44990;DHT22;30723;51.206;3.326;2022-10-22T08:34:30;16.80;99.90
44990;DHT22;30723;51.206;3.326;2022-10-22T08:36:56;16.80;99.90
44990;DHT22;30723;51.206;3.326;2022-10-22T08:39:22;16.80;99.90
44990;DHT22;30723;51.206;3.326;2022-10-22T08:50:15;17.00;99.90
44990;DHT22;30723;51.206;3.326;2022-10-22T08:52:43;17.10;99.90
44990;DHT22;30723;51.206;3.326;2022-10-22T08:55:14;17.20;99.90
44990;DHT22;30723;51.206;3.326;2022-10-22T08:57:49;17.40;99.90
44990;DHT22;30723;51.206;3.326;2022-10-22T09:00:20;17.50;99.90
44990;DHT22;30723;51.206;3.326;2022-10-22T09:08:14;17.40;99.90
44990;DHT22;30723;51.206;3.326;2022-10-22T09:10:50;17.50;99.90
44990;DHT22;30723;51.206;3.326;2022-10-22T09:13:19;17.40;99.90
44990;DHT22;30723;51.206;3.326;2022-10-22T09:15:58;17.60;99.90
44990;DHT22;30723;51.206;3.326;2022-10-22T09:18:30;17.60;99.90
44990;DHT22;30723;51.206;3.326;2022-10-22T09:21:05;17.60;99.90
44990;DHT22;30723;51.206;3.326;2022-10-22T09:23:55;17.60;99.90
44990;DHT22;30723;51.206;3.326;2022-10-22T09:26:24;17.60;99.90
44990;DHT22;30723;51.206;3.326;2022-10-22T09:28:51;17.60;99.90
44990;DHT22;30723;51.206;3.326;2022-10-22T09:31:17;17.70;99.90
44990;DHT22;30723;51.206;3.326;2022-10-22T09:33:44;17.80;99.90
44990;DHT22;30723;51.206;3.326;2022-10-22T09:36:20;17.80;99.90
44990;DHT22;30723;51.206;3.326;2022-10-22T09:38:51;17.70;99.90
44990;DHT22;30723;51.206;3.326;2022-10-22T09:41:24;17.70;99.90
44990;DHT22;30723;51.206;3.326;2022-10-22T09:43:50;18.00;99.90
44990;DHT22;30723;51.206;3.326;2022-10-22T09:46:21;18.10;99.90
44990;DHT22;30723;51.206;3.326;2022-10-22T09:49:23;18.30;99.90
44990;DHT22;30723;51.206;3.326;2022-10-22T09:51:56;18.50;99.90
44990;DHT22;30723;51.206;3.326;2022-10-22T09:54:48;18.80;99.90
44990;DHT22;30723;51.206;3.326;2022-10-22T09:57:23;19.00;99.90
44990;DHT22;30723;51.206;3.326;2022-10-22T09:59:50;19.10;99.90
44990;DHT22;30723;51.206;3.326;2022-10-22T10:02:25;19.20;99.90
44990;DHT22;30723;51.206;3.326;2022-10-22T10:04:54;19.40;99.90
44990;DHT22;30723;51.206;3.326;2022-10-22T10:07:21;19.40;99.90
44990;DHT22;30723;51.206;3.326;2022-10-22T10:09:48;19.40;99.90
44990;DHT22;30723;51.206;3.326;2022-10-22T10:15:58;19.30;99.90
44990;DHT22;30723;51.206;3.326;2022-10-22T10:26:57;20.30;99.90
44990;DHT22;30723;51.206;3.326;2022-10-22T10:40:52;21.50;99.90
44990;DHT22;30723;51.206;3.326;2022-10-22T10:48:41;21.90;99.90
44990;DHT22;30723;51.206;3.326;2022-10-22T10:54:06;21.60;99.90
44990;DHT22;30723;51.206;3.326;2022-10-22T10:56:57;21.20;99.90
44990;DHT22;30723;51.206;3.326;2022-10-22T11:15:46;21.90;99.90
44990;DHT22;30723;51.206;3.326;2022-10-22T11:18:33;23.50;99.90
44990;DHT22;30723;51.206;3.326;2022-10-22T11:21:12;24.80;99.90
44990;DHT22;30723;51.206;3.326;2022-10-22T11:26:28;25.60;99.90
44990;DHT22;30723;51.206;3.326;2022-10-22T11:28:57;25.30;99.90
44990;DHT22;30723;51.206;3.326;2022-10-22T11:31:24;25.20;99.90
44990;DHT22;30723;51.206;3.326;2022-10-22T11:36:28;27.30;99.90
44990;DHT22;30723;51.206;3.326;2022-10-22T11:38:55;27.70;99.90
44990;DHT22;30723;51.206;3.326;2022-10-22T11:41:26;27.90;99.90
44990;DHT22;30723;51.206;3.326;2022-10-22T11:44:08;28.30;99.90
44990;DHT22;30723;51.206;3.326;2022-10-22T11:46:45;28.10;98.80
44990;DHT22;30723;51.206;3.326;2022-10-22T11:49:16;27.80;98.80
44990;DHT22;30723;51.206;3.326;2022-10-22T11:51:43;27.60;98.70
44990;DHT22;30723;51.206;3.326;2022-10-22T12:02:43;26.50;99.70
44990;DHT22;30723;51.206;3.326;2022-10-22T12:10:19;23.80;99.90
44990;DHT22;30723;51.206;3.326;2022-10-22T12:12:54;23.20;99.90
44990;DHT22;30723;51.206;3.326;2022-10-22T12:15:27;22.60;99.90
44990;DHT22;30723;51.206;3.326;2022-10-22T12:18:04;22.60;99.90
44990;DHT22;30723;51.206;3.326;2022-10-22T12:20:30;22.70;99.90
44990;DHT22;30723;51.206;3.326;2022-10-22T12:22:57;22.30;99.90
44990;DHT22;30723;51.206;3.326;2022-10-22T12:25:29;22.20;99.90
44990;DHT22;30723;51.206;3.326;2022-10-22T12:27:58;22.10;99.90
44990;DHT22;30723;51.206;3.326;2022-10-22T12:30:30;22.10;99.90
44990;DHT22;30723;51.206;3.326;2022-10-22T12:32:58;22.20;99.90
44990;DHT22;30723;51.206;3.326;2022-10-22T12:35:27;22.60;99.90
44990;DHT22;30723;51.206;3.326;2022-10-22T12:37:57;23.40;99.90
44990;DHT22;30723;51.206;3.326;2022-10-22T12:40:32;23.60;99.90
44990;DHT22;30723;51.206;3.326;2022-10-22T12:43:01;24.20;99.90
44990;DHT22;30723;51.206;3.326;2022-10-22T12:45:31;24.50;99.90
44990;DHT22;30723;51.206;3.326;2022-10-22T12:50:54;23.60;99.90
44990;DHT22;30723;51.206;3.326;2022-10-22T12:55:53;24.70;99.90
44990;DHT22;30723;51.206;3.326;2022-10-22T12:58:28;25.30;99.90
44990;DHT22;30723;51.206;3.326;2022-10-22T13:00:56;26.30;99.90
44990;DHT22;30723;51.206;3.326;2022-10-22T13:03:36;27.20;99.90
44990;DHT22;30723;51.206;3.326;2022-10-22T13:11:40;27.50;98.40
44990;DHT22;30723;51.206;3.326;2022-10-22T13:14:26;27.90;97.80
44990;DHT22;30723;51.206;3.326;2022-10-22T13:17:14;28.00;96.70
44990;DHT22;30723;51.206;3.326;2022-10-22T13:22:29;28.10;95.70
44990;DHT22;30723;51.206;3.326;2022-10-22T13:24:57;27.80;95.90
44990;DHT22;30723;51.206;3.326;2022-10-22T13:27:26;27.50;95.50
44990;DHT22;30723;51.206;3.326;2022-10-22T13:29:52;27.70;96.30
44990;DHT22;30723;51.206;3.326;2022-10-22T13:32:30;28.20;95.40
44990;DHT22;30723;51.206;3.326;2022-10-22T13:35:00;28.70;93.80
44990;DHT22;30723;51.206;3.326;2022-10-22T13:37:29;28.70;93.80
44990;DHT22;30723;51.206;3.326;2022-10-22T13:39:55;28.30;93.70
44990;DHT22;30723;51.206;3.326;2022-10-22T13:42:21;27.00;94.30
44990;DHT22;30723;51.206;3.326;2022-10-22T13:44:47;25.80;96.30
44990;DHT22;30723;51.206;3.326;2022-10-22T13:47:27;25.70;97.40
44990;DHT22;30723;51.206;3.326;2022-10-22T13:49:58;25.70;97.60
44990;DHT22;30723;51.206;3.326;2022-10-22T13:52:52;25.30;98.00
44990;DHT22;30723;51.206;3.326;2022-10-22T13:57:43;24.40;99.50
44990;DHT22;30723;51.206;3.326;2022-10-22T14:00:15;24.00;99.90
44990;DHT22;30723;51.206;3.326;2022-10-22T14:02:41;23.90;99.90
44990;DHT22;30723;51.206;3.326;2022-10-22T14:05:08;24.20;99.90
44990;DHT22;30723;51.206;3.326;2022-10-22T14:07:35;24.50;99.90
44990;DHT22;30723;51.206;3.326;2022-10-22T14:10:02;24.70;99.60
44990;DHT22;30723;51.206;3.326;2022-10-22T14:12:28;24.60;99.50
44990;DHT22;30723;51.206;3.326;2022-10-22T14:14:53;24.30;99.90
44990;DHT22;30723;51.206;3.326;2022-10-22T14:17:19;24.50;99.90
44990;DHT22;30723;51.206;3.326;2022-10-22T14:19:46;25.00;99.90
44990;DHT22;30723;51.206;3.326;2022-10-22T14:22:23;25.40;99.30
44990;DHT22;30723;51.206;3.326;2022-10-22T14:24:51;25.40;99.00
44990;DHT22;30723;51.206;3.326;2022-10-22T14:27:17;25.70;99.30
44990;DHT22;30723;51.206;3.326;2022-10-22T14:29:42;25.80;99.20
44990;DHT22;30723;51.206;3.326;2022-10-22T14:32:17;25.50;98.80
44990;DHT22;30723;51.206;3.326;2022-10-22T14:34:46;25.30;99.40
44990;DHT22;30723;51.206;3.326;2022-10-22T14:37:17;25.20;99.40
44990;DHT22;30723;51.206;3.326;2022-10-22T14:39:44;25.10;99.90
44990;DHT22;30723;51.206;3.326;2022-10-22T14:42:14;25.00;99.50
44990;DHT22;30723;51.206;3.326;2022-10-22T14:44:41;24.90;99.50
44990;DHT22;30723;51.206;3.326;2022-10-22T14:47:06;24.90;99.90
44990;DHT22;30723;51.206;3.326;2022-10-22T14:49:32;24.70;99.90
44990;DHT22;30723;51.206;3.326;2022-10-22T14:51:58;24.30;99.90
44990;DHT22;30723;51.206;3.326;2022-10-22T14:54:24;23.90;99.90
44990;DHT22;30723;51.206;3.326;2022-10-22T14:56:50;23.50;99.90
44990;DHT22;30723;51.206;3.326;2022-10-22T14:59:15;23.20;99.90
44990;DHT22;30723;51.206;3.326;2022-10-22T15:01:41;23.00;99.90
44990;DHT22;30723;51.206;3.326;2022-10-22T15:04:08;22.90;99.90
44990;DHT22;30723;51.206;3.326;2022-10-22T15:06:34;22.80;99.90
44990;DHT22;30723;51.206;3.326;2022-10-22T15:09:00;22.70;99.90
44990;DHT22;30723;51.206;3.326;2022-10-22T15:11:26;22.70;99.90
44990;DHT22;30723;51.206;3.326;2022-10-22T15:13:51;22.60;99.90
44990;DHT22;30723;51.206;3.326;2022-10-22T15:16:17;22.50;99.90
44990;DHT22;30723;51.206;3.326;2022-10-22T15:18:43;22.40;99.90
44990;DHT22;30723;51.206;3.326;2022-10-22T15:21:15;22.30;99.90
44990;DHT22;30723;51.206;3.326;2022-10-22T15:23:41;22.10;99.90
44990;DHT22;30723;51.206;3.326;2022-10-22T15:26:08;22.00;99.90
44990;DHT22;30723;51.206;3.326;2022-10-22T15:28:35;22.00;99.90
44990;DHT22;30723;51.206;3.326;2022-10-22T15:31:01;21.80;99.90
44990;DHT22;30723;51.206;3.326;2022-10-22T15:33:27;21.80;99.90
44990;DHT22;30723;51.206;3.326;2022-10-22T15:35:54;21.60;99.90
44990;DHT22;30723;51.206;3.326;2022-10-22T15:38:20;21.50;99.90
44990;DHT22;30723;51.206;3.326;2022-10-22T15:40:46;21.40;99.90
44990;DHT22;30723;51.206;3.326;2022-10-22T15:43:12;21.30;99.90
44990;DHT22;30723;51.206;3.326;2022-10-22T15:45:38;21.10;99.90
44990;DHT22;30723;51.206;3.326;2022-10-22T15:48:04;20.90;99.90
44990;DHT22;30723;51.206;3.326;2022-10-22T15:50:30;20.90;99.90
44990;DHT22;30723;51.206;3.326;2022-10-22T15:52:56;20.70;99.90
44990;DHT22;30723;51.206;3.326;2022-10-22T15:55:21;20.60;99.90
44990;DHT22;30723;51.206;3.326;2022-10-22T15:57:47;20.60;99.90
44990;DHT22;30723;51.206;3.326;2022-10-22T16:00:20;20.40;99.90
44990;DHT22;30723;51.206;3.326;2022-10-22T16:02:46;20.30;99.90
44990;DHT22;30723;51.206;3.326;2022-10-22T16:05:12;20.20;99.90
44990;DHT22;30723;51.206;3.326;2022-10-22T16:07:37;20.10;99.90
44990;DHT22;30723;51.206;3.326;2022-10-22T16:10:04;20.00;99.90
44990;DHT22;30723;51.206;3.326;2022-10-22T16:12:32;19.90;99.90
44990;DHT22;30723;51.206;3.326;2022-10-22T16:15:00;19.80;99.90
44990;DHT22;30723;51.206;3.326;2022-10-22T16:17:26;19.60;99.90
44990;DHT22;30723;51.206;3.326;2022-10-22T16:19:52;19.50;99.90
44990;DHT22;30723;51.206;3.326;2022-10-22T16:22:18;19.40;99.90
44990;DHT22;30723;51.206;3.326;2022-10-22T16:24:43;19.30;99.90
44990;DHT22;30723;51.206;3.326;2022-10-22T16:27:09;19.20;99.90
44990;DHT22;30723;51.206;3.326;2022-10-22T16:29:38;19.10;99.90
44990;DHT22;30723;51.206;3.326;2022-10-22T16:32:04;19.00;99.90
44990;DHT22;30723;51.206;3.326;2022-10-22T16:34:30;18.70;99.90
44990;DHT22;30723;51.206;3.326;2022-10-22T16:36:56;18.60;99.90
44990;DHT22;30723;51.206;3.326;2022-10-22T16:39:22;18.50;99.90
44990;DHT22;30723;51.206;3.326;2022-10-22T16:41:48;18.50;99.90
44990;DHT22;30723;51.206;3.326;2022-10-22T16:44:14;18.40;99.90
44990;DHT22;30723;51.206;3.326;2022-10-22T16:46:40;18.30;99.90
44990;DHT22;30723;51.206;3.326;2022-10-22T16:49:06;18.20;99.90
44990;DHT22;30723;51.206;3.326;2022-10-22T16:51:33;18.10;99.90
44990;DHT22;30723;51.206;3.326;2022-10-22T16:53:58;18.00;99.90
44990;DHT22;30723;51.206;3.326;2022-10-22T16:56:24;17.90;99.90
44990;DHT22;30723;51.206;3.326;2022-10-22T16:58:55;17.80;99.90
44990;DHT22;30723;51.206;3.326;2022-10-22T17:01:23;17.80;99.90
44990;DHT22;30723;51.206;3.326;2022-10-22T17:03:51;17.70;99.90
44990;DHT22;30723;51.206;3.326;2022-10-22T17:06:19;17.70;99.90
44990;DHT22;30723;51.206;3.326;2022-10-22T17:08:44;17.60;99.90
44990;DHT22;30723;51.206;3.326;2022-10-22T17:11:12;17.50;99.90
44990;DHT22;30723;51.206;3.326;2022-10-22T17:13:43;17.50;99.90
44990;DHT22;30723;51.206;3.326;2022-10-22T17:16:11;17.50;99.90
44990;DHT22;30723;51.206;3.326;2022-10-22T17:18:39;17.40;99.90
44990;DHT22;30723;51.206;3.326;2022-10-22T17:21:06;17.40;99.90
44990;DHT22;30723;51.206;3.326;2022-10-22T17:23:32;17.30;99.90
44990;DHT22;30723;51.206;3.326;2022-10-22T17:26:00;17.20;99.90
44990;DHT22;30723;51.206;3.326;2022-10-22T17:28:27;17.10;99.90
44990;DHT22;30723;51.206;3.326;2022-10-22T17:31:16;17.00;99.90
44990;DHT22;30723;51.206;3.326;2022-10-22T17:33:42;17.00;99.90
44990;DHT22;30723;51.206;3.326;2022-10-22T17:36:09;16.90;99.90
44990;DHT22;30723;51.206;3.326;2022-10-22T17:38:37;16.90;99.90
44990;DHT22;30723;51.206;3.326;2022-10-22T17:41:05;16.90;99.90